Pays
Station

 

Conditions  météo  pour  Kuusamo  -  Finlande    Finlande

  
12 °C
    
 
 

METAR pour Kuusamo :

EFKS 231220Z AUTO 32009KT 280V020 CAVOK 12/M04 Q1022

 

Voici le bulletin pour Kuusamo - Finlande.
 
Le bulletin a été fait il y a 12 minutes, à 12:20 UTC .
Le vent soufflait à la vitesse de 4.6 mètres par seconde de Nord-ouest (320°), variant entre Ouest (280°) et Nord/Nord-est (020°).
 
La température était de 12 °C, avec un point de rosée à -4 °C.
La pression atmosphérique était de 1022 hPa.
L'humidité relative était de 32.4%.
 
Il y avait pas de nuages en-dessous de 1500 mètres et pas de cumulonimbus.
 
La visibilité globale était de supérieure à 10 kilomètres.
 

 
 
 

Pays :   A   B   C   D   E   F   G   H   I   J   K   L   M   N   O   P   Q   R   S   T   U   V   W   Y   Z

 

Partenaires :  Info Météo avec Met'info
Météo Marine avec MeteoMarine.net
Infos Site  |  Infos Légales  |  Crédits  |  Confidentialité
Contactez-nous  |  Ajouter aux favoris
© 2013-2018 METAR - Tous droits réservés